aviador You're here:

LFKF Decoded Metar

FIGARI in CORSE ISL.
Report Time2017-08-19 20:00:00
UTC Time2017-08-19 20:19:04
Flight Rules vfr VFR
Wind240° at 18 kt
W.Decomp.*RWY 23: 17.8 kt HW 2.8 kt RCW
W.Rank240° ranks 2
Current wind is above 240° avg. (10.5)
Visibility9999 m
Phenomena:N/A
Clouds:N/A
Expected CloudBase > 2,400 ft AGL from Temp-Dew spread
CeilingNone
Temp23°C (ISA +8)
Dew Point17°C (69% RH)
AAT18.9°C
QNH1014 hPa
Density Alt1,247 ft
Elevation75 ft
Report Wrong Elevation
Raw Report
LFKF 192000Z AUTO 24018KT CAVOK 23/17 Q1014 NOSIG=

Extra information for LFKF:More info

Metar Taf Metar & Taf Last 4 Metars F.Rules Stats Wind Profile Meteogram Temp Stats Airport Information Weather charts Add Link Nearby VenuesMetar ALERT Operation Metar Decoded Social comments